Aérodrome :
LOGIN :

S'inscrire | Disclaimer

   EN    FR    IT 

 










Légende :    VFR   VFR Marginal   IFR   IFR Intensif   IFR Très Intensif
Visi : 
Plafond : 
>= 8 km
>= 3000ft
5 à 8 km
1000 à 3000 ft
1500m à 5 km
500 à 1000 ft
800 à 1500m
200 à 500 ft
< 800m
< 200 ft
Symboles :   Orages  Brouillard  Fortes neiges  Fortes précipitations  Vent > 20 kt
SIGMETs :   Divers  Orages  Givrage  Turbulence  Onde Orograph.  Cendres Volcan.







- Altitude de l'aérodrome : 814 ft
- Code IATA : TLM


DAON - Zenata - Tlemcen

DERNIER METAR :
  • 211500Z 34012KT CAVOK 33/11 Q1013

METARs EXPIRÉS :
  • 211430Z 34011KT CAVOK 33/11 Q1013
  • 211400Z 34012KT CAVOK 34/11 Q1013
  • 211330Z 34009KT CAVOK 35/10 Q1013
  • 211300Z 34006KT CAVOK 36/08 Q1014
  • 211230Z 34006KT CAVOK 35/09 Q1014

TAF TAF DAON
Valide du 21 à 12h jusqu'au 22 à 12h UTC


211100Z 2112/2212 34012KT CAVOK
BECMG 2113/2116 9999 FEW026 SCT100
BECMG 2117/2119 VRB02KT SCT026 FEW030TCU BKN100
PROB30
TEMPO 2120/2204-TSRA FEW026CB
Pas de NOTAMs connus pour ce terrain.



MET'MAP, la Météo Aéronautique d'un coup d'oeil ! - Copyright ORBIFLY Décembre 2007 - Disclaimer

ORBIFLY MET'MAP TEAM :

Programmation & Développement : Alexandra Zaïnal
Conception & Développement : Baudouin d'Aumeries
Co-Programmation & Développement : Marc-Olivier Méhu
Soutien technique & logistique : Manuel Goepfert

Contact : metmap@orbifly.com




SOURCES & CREDITS :

   NOAA